Time;durP1;ratioP1;P1;durP2;ratioP2;P2;SDS_P1;SDS_P2;PMS_P1;PMS_P2;Temp;Humidity;BMP_temperature;BMP_pressure;BME280_temperature;BME280_humidity;BME280_pressure;Samples;Min_cycle;Max_cycle;Signal;HPM_P1;HPM_P2
2023/08/01 00:00:34;;;;;;;;;;;19.70;73.60;;;19.01;63.84;98038.91;10211006;28;797;-70
2023/08/01 00:05:29;;;;;;;;;;;19.70;73.60;;;19.00;63.93;98031.94;10211157;28;1976;-70
2023/08/01 00:10:25;;;;;;;;;;;19.70;73.60;;;19.00;64.06;98029.31;10210020;28;972;-71
2023/08/01 00:15:20;;;;;;;;;;;19.70;73.60;;;19.00;63.88;98018.75;10210459;28;765;-70
2023/08/01 00:20:16;;;;;;;;;;;19.70;73.60;;;18.99;63.96;98017.91;10210989;28;939;-70
2023/08/01 00:25:11;;;;;;;;;;;19.70;73.60;;;18.99;63.91;98003.84;10209356;28;1910;-70
2023/08/01 00:30:06;;;;;;;;;;;19.70;73.60;;;19.00;63.79;98010.81;10210416;28;1199;-70
2023/08/01 00:35:02;;;;;;;;;;;19.70;73.60;;;18.99;63.84;97991.50;10210277;28;870;-70
2023/08/01 00:40:04;;;;;;;;;;;19.70;73.60;;;18.98;63.95;97958.13;10210060;28;820;-70
2023/08/01 00:45:00;;;;;;;;;;;19.70;73.50;;;18.98;63.82;97981.06;10210136;28;1906;-70
2023/08/01 00:49:56;;;;;;;;;;;19.70;73.50;;;18.97;63.86;97961.72;10209837;28;1562;-70
2023/08/01 00:54:57;;;;;;;;;;;19.70;73.60;;;18.96;63.91;97960.03;10209308;28;1409;-70
2023/08/01 00:59:56;;;;;;;;;;;19.70;73.50;;;18.97;63.88;97956.44;10208979;28;856;-70
2023/08/01 01:04:54;;;;;;;;;;;19.70;73.60;;;18.96;64.02;97938.91;10208366;28;1902;-70
2023/08/01 01:09:49;;;;;;;;;;;19.70;73.50;;;18.97;63.76;97937.97;10208449;28;765;-70
2023/08/01 01:14:48;;;;;;;;;;;19.70;73.50;;;18.97;63.76;97943.25;10208788;28;877;-70
2023/08/01 01:19:44;;;;;;;;;;;19.70;73.50;;;18.97;63.81;97942.41;10208623;28;821;-70
2023/08/01 01:24:39;;;;;;;;;;;19.70;73.60;;;18.96;63.85;97946.84;10206945;28;1910;-70
2023/08/01 01:29:38;;;;;;;;;;;19.70;73.50;;;18.96;63.83;97931.00;10207572;28;1265;-70
2023/08/01 01:34:37;;;;;;;;;;;19.70;73.50;;;18.96;63.91;97938.91;10207437;28;960;-71
2023/08/01 01:39:32;;;;;;;;;;;19.70;73.50;;;18.96;63.83;97938.06;10207721;28;986;-70
2023/08/01 01:44:27;;;;;;;;;;;19.70;73.40;;;18.96;63.82;97938.91;10207545;28;2267;-70
2023/08/01 01:49:26;;;;;;;;;;;19.70;73.50;;;18.95;63.77;97929.31;10206807;28;997;-70
2023/08/01 01:54:22;;;;;;;;;;;19.70;73.50;;;18.95;63.86;97928.50;10206551;28;1285;-70
2023/08/01 01:59:17;;;;;;;;;;;19.70;73.40;;;18.95;63.75;97923.22;10207046;28;890;-70
2023/08/01 02:04:13;;;;;;;;;;;19.70;73.50;;;18.94;63.71;97937.34;10206249;28;1911;-70
2023/08/01 02:09:08;;;;;;;;;;;19.70;73.40;;;18.93;63.67;97918.03;10206750;28;822;-70
2023/08/01 02:14:04;;;;;;;;;;;19.70;73.40;;;18.94;63.74;97909.16;10206520;28;823;-70
2023/08/01 02:18:59;;;;;;;;;;;19.70;73.30;;;18.93;63.76;97919.84;10205201;28;1236;-70
2023/08/01 02:23:55;;;;;;;;;;;19.70;73.40;;;18.93;63.73;97918.03;10205967;28;1910;-70
2023/08/01 02:28:50;;;;;;;;;;;19.70;73.30;;;18.93;63.71;97917.19;10206041;28;822;-70
2023/08/01 02:33:45;;;;;;;;;;;19.60;73.20;;;18.93;63.67;97917.19;10205116;28;1207;-70
2023/08/01 02:38:41;;;;;;;;;;;19.60;73.20;;;18.92;63.56;97913.72;10205712;28;814;-71
2023/08/01 02:43:37;;;;;;;;;;;19.60;73.20;;;18.91;63.59;97906.75;10204879;28;1973;-70
2023/08/01 02:48:36;;;;;;;;;;;19.60;73.20;;;18.91;63.68;97914.66;10205556;28;1240;-70
2023/08/01 02:53:31;;;;;;;;;;;19.60;73.10;;;18.91;63.61;97922.59;10205795;28;1121;-70
2023/08/01 02:58:27;;;;;;;;;;;19.60;73.10;;;18.91;63.78;97917.31;10205383;28;829;-70
2023/08/01 03:03:22;;;;;;;;;;;19.60;73.20;;;18.91;63.72;97924.38;10204252;28;1977;-70
2023/08/01 03:08:18;;;;;;;;;;;19.60;73.10;;;18.90;63.75;97918.28;10204397;28;893;-70
2023/08/01 03:13:13;;;;;;;;;;;19.60;73.10;;;18.90;63.80;97923.56;10204815;28;897;-70
2023/08/01 03:18:09;;;;;;;;;;;19.60;73.10;;;18.90;63.73;97928.84;10203964;28;1285;-71
2023/08/01 03:23:07;;;;;;;;;;;19.60;73.10;;;18.89;63.62;97921.03;10203470;28;1203;-70
2023/08/01 03:28:03;;;;;;;;;;;19.60;73.10;;;18.90;63.67;97928.00;10204595;28;1957;-70
2023/08/01 03:33:02;;;;;;;;;;;19.60;73.10;;;18.89;63.98;97927.16;10212586;28;846;-70
2023/08/01 03:38:04;;;;;;;;;;;19.60;73.10;;;18.89;63.73;97936.84;10211579;28;888;-71
2023/08/01 03:43:00;;;;;;;;;;;19.60;73.10;;;18.88;63.64;97933.38;10211420;28;909;-70
2023/08/01 03:47:55;;;;;;;;;;;19.60;73.00;;;18.88;63.79;97938.66;10211733;28;1903;-70
2023/08/01 03:52:53;;;;;;;;;;;19.60;73.10;;;18.87;63.72;97931.72;10210877;28;1282;-70
2023/08/01 03:57:49;;;;;;;;;;;19.60;73.00;;;18.88;63.76;97935.19;10211226;28;806;-68
2023/08/01 04:02:47;;;;;;;;;;;19.60;73.00;;;18.86;63.61;97945.84;10211169;28;838;-69
2023/08/01 04:07:48;;;;;;;;;;;19.60;73.00;;;18.87;63.61;97944.91;10210761;28;1972;-70
2023/08/01 05:33:13;;;;;;;;;;;;;;;18.95;64.11;98013.81;10358610;27;3529638;-66
2023/08/01 05:38:09;;;;;;;;;;;;;;;18.99;63.95;98012.63;10485221;27;1968;-66
2023/08/01 05:43:09;;;;;;;;;;;;;;;19.05;63.97;98021.88;10485961;27;936;-66
2023/08/01 05:48:05;;;;;;;;;;;;;;;19.06;63.58;98015.63;10485555;27;1083;-66
2023/08/01 05:53:11;;;;;;;;;;;;;;;19.09;63.78;98025.94;10484617;27;1159;-66
2023/08/01 05:58:10;;;;;;;;;;;;;;;19.11;63.80;98028.50;10485384;27;1889;-65
2023/08/01 06:03:12;;;;;;;;;;;;;;;19.13;63.89;98032.69;10484643;27;1202;-66
2023/08/01 06:08:08;;;;;;;;;;;;;;;19.14;63.68;98030.91;10484302;27;1353;-66
2023/08/01 06:13:11;;;;;;;;;;;;;;;19.14;63.68;98034.38;10484136;27;1539;-66
2023/08/01 06:18:16;;;;;;;;;;;;;;;19.13;63.80;98045.06;10484801;27;1894;-66
2023/08/01 06:23:12;;;;;;;;;;;;;;;19.13;63.97;98039.78;10484377;27;1237;-66
2023/08/01 06:28:08;;;;;;;;;;;;;;;19.12;63.91;98038.09;10482990;27;1196;-66
2023/08/01 06:38:37;;;;;;;;;;;;;;;19.10;64.00;98046.16;10452114;27;1901;-66
2023/08/01 06:43:37;;;;;;;;;;;;;;;19.13;64.02;98050.34;10454225;27;1442;-65
2023/08/01 06:48:52;;;;;;;;;;;;;;;19.16;64.05;98050.13;10454942;27;1026;-71
2023/08/01 06:53:58;;;;;;;;;;;;;;;19.23;64.26;98052.19;10453036;27;1309;-66
2023/08/01 06:58:55;;;;;;;;;;;;;;;19.26;64.75;98051.09;10451431;27;1901;-64
2023/08/01 07:04:06;;;;;;;;;;;;;;;19.29;64.92;98047.38;10437151;27;1401;-65
2023/08/01 07:09:06;;;;;;;;;;;;;;;19.31;64.85;98054.22;10408222;28;1346;-66
2023/08/01 07:14:14;;;;;;;;;;;;;;;19.34;64.92;98061.09;10412155;28;867;-67
2023/08/01 07:19:16;;;;;;;;;;;;;;;19.34;64.79;98058.44;10412842;27;1948;-66
2023/08/01 07:24:19;;;;;;;;;;;;;;;19.32;64.77;98060.34;10449636;27;897;-66
2023/08/01 07:29:24;;;;;;;;;;;;;;;19.32;64.64;98068.28;10451973;27;1256;-66
2023/08/01 07:34:30;;;;;;;;;;;;;;;19.34;64.77;98066.38;10452172;27;1531;-65
2023/08/01 07:39:36;;;;;;;;;;;;;;;19.36;64.72;98067.94;10452499;27;1913;-66
2023/08/01 07:44:45;;;;;;;;;;;;;;;19.38;64.60;98075.72;10452512;27;1103;-66
2023/08/01 07:49:50;;;;;;;;;;;;;;;19.38;64.57;98076.56;10452510;27;1211;-66
2023/08/01 07:54:57;;;;;;;;;;;;;;;19.39;64.17;98080.91;10451831;27;782;-66
2023/08/01 07:59:55;;;;;;;;;;;;;;;19.43;64.21;98084.16;10451779;27;1940;-70
2023/08/01 08:04:51;;;;;;;;;;;;;;;19.44;64.20;98086.69;10451375;27;936;-68
2023/08/01 08:09:58;;;;;;;;;;;;;;;19.43;64.35;98084.97;10451200;27;881;-68
2023/08/01 08:20:09;;;;;;;;;;;;;;;19.41;64.06;98097.50;10450913;27;1909;-68
2023/08/01 08:25:09;;;;;;;;;;;;;;;19.41;64.06;98105.41;10450187;27;1513;-65
2023/08/01 08:30:11;;;;;;;;;;;;;;;19.40;64.13;98101.06;10450909;27;1209;-66
2023/08/01 08:35:17;;;;;;;;;;;;;;;19.40;63.99;98105.53;10450545;27;1409;-66
2023/08/01 08:40:16;;;;;;;;;;;;;;;19.40;63.96;98105.53;10449668;27;1961;-66
2023/08/01 08:45:14;;;;;;;;;;;;;;;19.43;63.89;98102.63;10450907;27;1225;-66
2023/08/01 08:50:10;;;;;;;;;;;;;;;19.44;63.69;98107.81;10449645;27;978;-66
2023/08/01 08:55:22;;;;;;;;;;;;;;;19.42;63.45;98099.16;10449737;27;1163;-65
2023/08/01 09:00:24;;;;;;;;;;;;;;;19.47;63.48;98099.66;10449255;27;1893;-65
2023/08/01 09:05:29;;;;;;;;;;;;;;;19.49;63.53;98105.66;10449618;27;1537;-66
2023/08/01 09:10:40;;;;;;;;;;;;;;;19.53;63.33;98106.25;10450468;27;1275;-65
2023/08/01 09:15:39;;;;;;;;;;;;;;;19.51;63.37;98102.06;10450093;27;1220;-65
2023/08/01 09:26:07;;;;;;;;;;;;;;;19.51;63.47;98102.88;10320864;28;1139;-66
2023/08/01 09:31:02;;;;;;;;;;;;;;;19.51;63.27;98100.25;10331798;28;1519;-76
2023/08/01 09:35:59;;;;;;;;;;;;;;;19.54;63.21;98115.88;10448768;28;908;-71
2023/08/01 09:41:13;;;;;;;;;;;;;;;19.55;63.29;98114.09;10449109;28;1914;-75
2023/08/01 09:46:25;;;;;;;;;;;;;;;19.55;63.31;98120.22;10449476;28;822;-70
2023/08/01 09:51:21;;;;;;;;;;;;;;;19.58;63.37;98113.84;10449320;28;1200;-70
2023/08/01 09:56:17;;;;;;;;;;;;;;;19.61;63.26;98111.81;10448885;28;794;-67
2023/08/01 10:11:53;;;;;;;;;;;;;;;19.61;63.02;98110.97;10456607;27;680;-67
2023/08/01 10:16:49;;;;;;;;;;;;;;;19.59;63.22;98105.78;10456804;27;1044;-67
2023/08/01 10:21:48;;;;;;;;;;;;;;;19.61;63.09;98103.88;10456141;27;1878;-67
2023/08/01 10:26:44;;;;;;;;;;;;;;;19.65;62.83;98109.78;10456035;27;776;-67
2023/08/01 10:31:40;;;;;;;;;;;;;;;19.68;62.66;98099.00;10455106;27;1143;-67
2023/08/01 10:36:36;;;;;;;;;;;;;;;19.70;62.77;98099.69;10455534;27;869;-67
2023/08/01 10:41:35;;;;;;;;;;;;;;;19.66;62.84;98103.53;10455890;27;1971;-67
2023/08/01 10:46:37;;;;;;;;;;;;;;;19.63;62.92;98111.69;10455148;27;845;-67
2023/08/01 10:51:33;;;;;;;;;;;;;;;19.59;62.79;98144.59;10455002;27;802;-67
2023/08/01 10:56:32;;;;;;;;;;;;;;;19.56;63.02;98136.91;10454806;27;774;-67
2023/08/01 11:01:28;;;;;;;;;;;;;;;19.53;63.11;98143.25;10455119;27;1897;-67
2023/08/01 11:06:23;;;;;;;;;;;;;;;19.52;63.10;98146.00;10454373;27;851;-67
2023/08/01 11:11:41;;;;;;;;;;;;;;;19.56;62.89;98136.91;10454243;27;956;-67
2023/08/01 11:16:35;;;;;;;;;;;;;;;19.54;63.11;98138.81;10453175;27;1582;-67
2023/08/01 11:21:36;;;;;;;;;;;;;;;19.55;63.00;98141.34;10453735;27;1955;-67
2023/08/01 11:26:35;;;;;;;;;;;;;;;19.63;62.78;98140.78;10453554;27;946;-67
2023/08/01 11:31:34;;;;;;;;;;;;;;;19.66;62.54;98133.47;10452996;27;1423;-67
2023/08/01 11:36:29;;;;;;;;;;;;;;;19.73;62.44;98127.69;10453167;27;968;-67
2023/08/01 11:41:25;;;;;;;;;;;;;;;19.69;62.72;98132.41;10452960;27;1910;-66
2023/08/01 11:46:22;;;;;;;;;;;;;;;19.62;62.96;98147.00;10452115;27;1015;-68
2023/08/01 11:51:27;;;;;;;;;;;;;;;19.56;63.08;98179.19;10452113;27;1598;-68
2023/08/01 11:56:23;;;;;;;;;;;;;;;19.50;63.10;98196.34;10452353;27;888;-67
2023/08/01 12:01:26;;;;;;;;;;;;;;;19.57;63.26;98202.88;10452712;27;1890;-68
2023/08/01 12:06:22;;;;;;;;;;;;;;;19.60;63.25;98202.63;10451908;27;883;-68
2023/08/01 12:11:19;;;;;;;;;;;;;;;19.60;63.04;98207.09;10451639;27;908;-67
2023/08/01 12:16:22;;;;;;;;;;;;;;;19.63;62.98;98215.63;10451512;27;1421;-71
2023/08/01 12:21:18;;;;;;;;;;;;;;;19.59;63.15;98227.38;10451846;27;1948;-71
2023/08/01 12:26:14;;;;;;;;;;;;;;;19.55;63.15;98238.31;10451150;27;900;-71
2023/08/01 12:31:10;;;;;;;;;;;;;;;19.51;63.22;98229.75;10450863;27;1094;-75
2023/08/01 12:36:06;;;;;;;;;;;;;;;19.51;63.22;98223.63;10451763;27;771;-78
2023/08/01 12:41:02;;;;;;;;;;;;;;;19.54;62.92;98228.66;10450646;27;1909;-78
2023/08/01 14:54:43;;;;;;;;;;;;;;;20.30;60.37;98257.28;10628915;22;2031;-68
2023/08/01 14:59:39;;;;;;;;;;;;;;;20.41;60.17;98260.88;10330013;28;1978;-68
2023/08/01 15:09:50;;;;;;;;;;;;;;;20.59;59.78;98264.75;10629503;22;1993;-69
2023/08/01 15:14:46;;;;;;;;;;;;;;;20.65;59.82;98259.00;10329214;28;858;-68
2023/08/01 15:19:43;;;;;;;;;;;;;;;20.73;59.61;98251.28;10329273;28;1925;-69
2023/08/01 15:24:39;;;;;;;;;;;;;;;20.70;60.00;98256.00;10329598;28;819;-72
2023/08/01 15:29:35;;;;;;;;;;;;;;;20.78;59.51;98254.41;10328898;28;926;-72
2023/08/01 15:34:31;;;;;;;;;;;;;;;20.89;59.17;98256.19;10328775;28;866;-72
2023/08/01 15:39:27;;;;;;;;;;;;;;;20.87;59.38;98259.94;10328609;28;1902;-72
2023/08/01 15:44:23;;;;;;;;;;;;;;;20.55;60.27;98258.03;10329065;28;874;-72
2023/08/01 15:49:39;;;;;;;;;;;;;;;20.32;60.79;98268.56;10328167;28;925;-72
2023/08/01 15:54:35;;;;;;;;;;;;;;;20.20;61.04;98269.53;10327821;28;1533;-72
2023/08/01 15:59:31;;;;;;;;;;;;;;;20.14;61.13;98267.31;10327500;28;1951;-72
2023/08/01 16:04:26;;;;;;;;;;;;;;;20.09;61.32;98274.78;10327434;28;939;-75
2023/08/01 16:09:22;;;;;;;;;;;;;;;20.04;61.29;98280.44;10345834;28;1291;-75
2023/08/01 16:19:33;;;;;;;;;;;;;;;20.00;61.35;98286.06;10367649;28;1917;-79
2023/08/01 16:24:29;;;;;;;;;;;;;;;19.97;61.27;98286.31;10368042;28;770;-79
2023/08/01 16:29:24;;;;;;;;;;;;;;;19.93;61.42;98290.97;10367614;28;834;-79
2023/08/01 16:34:20;;;;;;;;;;;;;;;19.88;61.60;98285.16;10367907;28;984;-79
2023/08/01 16:39:16;;;;;;;;;;;;;;;19.86;61.33;98298.53;10367488;28;1965;-78
2023/08/01 16:44:12;;;;;;;;;;;;;;;19.84;61.38;98287.22;10368175;28;861;-79
2023/08/01 16:49:08;;;;;;;;;;;;;;;19.85;61.33;98291.53;10368421;28;917;-79
2023/08/01 16:54:05;;;;;;;;;;;;;;;19.84;61.35;98284.56;10367577;28;826;-72
2023/08/01 16:59:01;;;;;;;;;;;;;;;19.82;61.30;98293.56;10366268;28;1960;-79
2023/08/01 17:03:57;;;;;;;;;;;;;;;19.82;61.26;98294.41;10366145;28;917;-79
2023/08/01 17:08:53;;;;;;;;;;;;;;;19.82;61.25;98297.06;10366894;28;1107;-79
2023/08/01 17:13:49;;;;;;;;;;;;;;;19.78;61.32;98290.31;10366449;28;847;-78
2023/08/01 17:18:45;;;;;;;;;;;;;;;19.76;60.98;98297.53;10366766;28;1922;-80
2023/08/01 17:23:41;;;;;;;;;;;;;;;19.74;61.22;98296.78;10366389;28;980;-80
2023/08/01 17:28:37;;;;;;;;;;;;;;;19.74;60.88;98307.38;10366059;28;1121;-91
2023/08/01 17:33:33;;;;;;;;;;;;;;;19.73;61.18;98302.19;10366042;28;834;-83
2023/08/01 17:38:29;;;;;;;;;;;;;;;19.70;60.90;98311.19;10366727;28;1949;-84
2023/08/01 17:43:26;;;;;;;;;;;;;;;19.70;61.01;98324.41;10365824;28;937;-80
2023/08/01 17:48:24;;;;;;;;;;;;;;;19.69;61.03;98323.56;10365663;28;881;-71
2023/08/01 17:53:26;;;;;;;;;;;;;;;19.70;61.13;98324.41;10365793;28;993;-71
2023/08/01 17:58:28;;;;;;;;;;;;;;;19.70;61.38;98319.09;10365609;28;1897;-73
2023/08/01 18:03:30;;;;;;;;;;;;;;;19.70;61.36;98334.97;10364797;28;917;-73
2023/08/01 18:08:29;;;;;;;;;;;;;;;19.68;61.30;98342.19;10366096;28;1128;-72
2023/08/01 18:13:31;;;;;;;;;;;;;;;19.67;61.43;98346.63;10365467;28;854;-73
2023/08/01 18:18:30;;;;;;;;;;;;;;;19.66;61.28;98349.34;10365271;28;1910;-73
2023/08/01 18:23:32;;;;;;;;;;;;;;;19.67;61.42;98351.06;10365749;28;953;-73
2023/08/01 18:28:33;;;;;;;;;;;;;;;19.66;61.66;98357.28;10369233;28;878;-73
2023/08/01 18:33:38;;;;;;;;;;;;;;;19.68;61.92;98360.69;10372559;28;2199;-71
2023/08/01 18:38:34;;;;;;;;;;;;;;;19.67;61.99;98366.91;10372719;28;1889;-71
2023/08/01 18:43:40;;;;;;;;;;;;;;;19.66;62.08;98370.50;10372661;28;893;-71
2023/08/01 18:48:36;;;;;;;;;;;;;;;19.63;62.30;98379.50;10371655;28;893;-71
2023/08/01 18:53:38;;;;;;;;;;;;;;;19.61;62.40;98388.50;10372189;28;862;-71
2023/08/01 18:58:34;;;;;;;;;;;;;;;19.59;62.38;98385.09;10371273;28;1885;-73
2023/08/01 19:03:30;;;;;;;;;;;;;;;19.57;62.54;98393.16;10371702;28;992;-72
2023/08/01 19:08:26;;;;;;;;;;;;;;;19.56;62.76;98390.63;10371296;28;1203;-73
2023/08/01 19:13:22;;;;;;;;;;;;;;;19.56;62.65;98403.84;10370316;28;889;-72
2023/08/01 19:18:18;;;;;;;;;;;;;;;19.55;63.03;98410.09;10371514;28;874;-73
2023/08/01 19:23:14;;;;;;;;;;;;;;;19.51;62.66;98414.72;10371071;28;858;-72
2023/08/01 19:28:14;;;;;;;;;;;;;;;19.51;62.65;98429.75;10370130;28;870;-72
2023/08/01 19:33:16;;;;;;;;;;;;;;;19.51;62.74;98424.47;10370070;28;1239;-71
2023/08/01 19:38:15;;;;;;;;;;;;;;;19.48;62.63;98429.00;10370501;28;791;-72
2023/08/01 19:43:17;;;;;;;;;;;;;;;19.47;62.71;98439.72;10369658;28;1898;-72
2023/08/01 19:48:19;;;;;;;;;;;;;;;19.47;62.92;98451.13;10370022;28;802;-72
2023/08/01 19:53:21;;;;;;;;;;;;;;;19.45;62.75;98450.38;10369242;28;1415;-72
2023/08/01 19:58:20;;;;;;;;;;;;;;;19.43;62.71;98452.28;10369019;28;888;-72
2023/08/01 20:03:22;;;;;;;;;;;;;;;19.41;62.52;98455.97;10369515;28;909;-71
2023/08/01 20:08:21;;;;;;;;;;;;;;;19.40;62.66;98459.59;10368824;28;1399;-72
2023/08/01 20:23:46;;;;;;;;;;;;;;;19.40;62.71;98464.88;10367681;28;637;-72
2023/08/01 20:28:43;;;;;;;;;;;;;;;19.40;62.76;98476.28;10368425;28;1257;-72
2023/08/01 20:33:39;;;;;;;;;;;;;;;19.39;63.02;98468.47;10368312;28;966;-71
2023/08/01 20:38:34;;;;;;;;;;;;;;;19.39;62.82;98465.84;10366868;28;1894;-71
2023/08/01 20:59:33;;;;;;;;;;;;;;;19.34;62.71;98467.94;10366287;28;1898;-73
2023/08/01 21:04:31;;;;;;;;;;;;;;;19.34;62.87;98467.94;10366772;28;876;-74
2023/08/01 21:09:33;;;;;;;;;;;;;;;19.31;62.61;98455.81;10366004;28;1288;-74
2023/08/01 21:14:35;;;;;;;;;;;;;;;19.32;62.68;98465.41;10366501;28;959;-74
2023/08/01 21:19:34;;;;;;;;;;;;;;;19.30;62.46;98472.59;10366176;28;1909;-74
2023/08/01 21:24:36;;;;;;;;;;;;;;;19.29;62.63;98462.97;10366875;28;859;-74
2023/08/01 21:29:38;;;;;;;;;;;;;;;19.30;62.61;98469.09;10366838;28;902;-74
2023/08/01 21:34:37;;;;;;;;;;;;;;;19.29;62.66;98470.91;10365552;28;854;-72
2023/08/01 21:39:39;;;;;;;;;;;;;;;19.31;62.59;98476.06;10366512;28;1929;-72
2023/08/01 21:44:41;;;;;;;;;;;;;;;19.29;62.65;98480.63;10365957;28;897;-72
2023/08/01 21:49:43;;;;;;;;;;;;;;;19.30;62.67;98475.22;10365237;28;909;-72
2023/08/01 21:54:42;;;;;;;;;;;;;;;19.28;62.82;98471.84;10365701;28;900;-72
2023/08/01 21:59:44;;;;;;;;;;;;;;;19.27;62.73;98473.63;10365562;28;1957;-72
2023/08/01 22:04:43;;;;;;;;;;;;;;;19.27;62.80;98465.72;10364167;28;901;-72
2023/08/01 22:09:46;;;;;;;;;;;;;;;19.27;62.67;98465.72;10374740;28;1278;-72
2023/08/01 22:14:45;;;;;;;;;;;;;;;19.26;62.68;98461.41;10372551;28;883;-72
2023/08/01 22:19:47;;;;;;;;;;;;;;;19.26;62.54;98456.13;10372885;28;1909;-72
2023/08/01 22:24:46;;;;;;;;;;;;;;;19.26;62.72;98457.91;10372268;28;896;-72
2023/08/01 22:29:48;;;;;;;;;;;;;;;19.25;62.70;98458.84;10373251;28;854;-72
2023/08/01 22:34:49;;;;;;;;;;;;;;;19.25;62.84;98464.13;10373036;28;881;-72
2023/08/01 22:39:48;;;;;;;;;;;;;;;19.25;62.76;98466.78;10372627;28;1960;-72
2023/08/01 22:44:50;;;;;;;;;;;;;;;19.24;62.84;98458.00;10372676;28;913;-72
2023/08/01 22:49:52;;;;;;;;;;;;;;;19.24;62.74;98449.25;10364711;28;962;-72
2023/08/01 22:54:51;;;;;;;;;;;;;;;19.23;62.63;98451.06;10371662;28;865;-72
2023/08/01 22:59:47;;;;;;;;;;;;;;;19.23;62.90;98442.25;10372218;28;1956;-72
2023/08/01 23:04:46;;;;;;;;;;;;;;;19.22;62.64;98448.50;10370910;28;1012;-72
2023/08/01 23:09:42;;;;;;;;;;;;;;;19.22;62.85;98446.69;10371602;28;1289;-68
2023/08/01 23:14:38;;;;;;;;;;;;;;;19.24;62.77;98430.75;10369980;28;982;-72
2023/08/01 23:19:38;;;;;;;;;;;;;;;19.23;62.66;98426.41;10371138;28;1918;-72
2023/08/01 23:24:34;;;;;;;;;;;;;;;19.22;62.77;98425.56;10370495;28;948;-72
2023/08/01 23:29:29;;;;;;;;;;;;;;;19.21;62.72;98429.16;10370239;28;946;-72
2023/08/01 23:34:25;;;;;;;;;;;;;;;19.22;62.67;98428.22;10369618;28;1004;-72
2023/08/01 23:39:21;;;;;;;;;;;;;;;19.21;62.89;98421.25;10369250;28;1953;-72
2023/08/01 23:44:17;;;;;;;;;;;;;;;19.21;62.93;98425.69;10369612;28;803;-71
2023/08/01 23:49:13;;;;;;;;;;;;;;;19.21;62.71;98418.59;10369965;28;849;-72
2023/08/01 23:54:09;;;;;;;;;;;;;;;19.21;62.77;98425.69;10369499;28;903;-72
2023/08/01 23:59:05;;;;;;;;;;;;;;;19.21;62.71;98423.06;10369036;28;1953;-72
